Map

Track Data

SID SEASON NUMBER BASIN SUBBASIN NAME ISO_TIME NATURE LAT LON WMO_WIND WMO_PRES WMO_AGENCY TRACK_TYPE DIST2LAND LANDFALL IFLAG USA_AGENCY USA_ATCF_ID USA_LAT USA_LON USA_RECORD USA_STATUS USA_WIND USA_PRES USA_SSHS USA_R34_NE USA_R34_SE USA_R34_SW USA_R34_NW USA_R50_NE USA_R50_SE USA_R50_SW USA_R50_NW USA_R64_NE USA_R64_SE USA_R64_SW USA_R64_NW USA_POCI USA_ROCI USA_RMW USA_EYE TOKYO_LAT TOKYO_LON TOKYO_GRADE TOKYO_WIND TOKYO_PRES TOKYO_R50_DIR TOKYO_R50_LONG TOKYO_R50_SHORT TOKYO_R30_DIR TOKYO_R30_LONG TOKYO_R30_SHORT TOKYO_LAND CMA_LAT CMA_LON CMA_CAT CMA_WIND CMA_PRES HKO_LAT HKO_LON HKO_CAT HKO_WIND HKO_PRES NEWDELHI_LAT NEWDELHI_LON NEWDELHI_GRADE NEWDELHI_WIND NEWDELHI_PRES NEWDELHI_CI NEWDELHI_DP NEWDELHI_POCI REUNION_LAT REUNION_LON REUNION_TYPE REUNION_WIND REUNION_PRES REUNION_TNUM REUNION_CI REUNION_RMW REUNION_R34_NE REUNION_R34_SE REUNION_R34_SW REUNION_R34_NW REUNION_R50_NE REUNION_R50_SE REUNION_R50_SW REUNION_R50_NW REUNION_R64_NE REUNION_R64_SE REUNION_R64_SW REUNION_R64_NW BOM_LAT BOM_LON BOM_TYPE BOM_WIND BOM_PRES BOM_TNUM BOM_CI BOM_RMW BOM_R34_NE BOM_R34_SE BOM_R34_SW BOM_R34_NW BOM_R50_NE BOM_R50_SE BOM_R50_SW BOM_R50_NW BOM_R64_NE BOM_R64_SE BOM_R64_SW BOM_R64_NW BOM_ROCI BOM_POCI BOM_EYE BOM_POS_METHOD BOM_PRES_METHOD NADI_LAT NADI_LON NADI_CAT NADI_WIND NADI_PRES WELLINGTON_LAT WELLINGTON_LON WELLINGTON_WIND WELLINGTON_PRES DS824_LAT DS824_LON DS824_STAGE DS824_WIND DS824_PRES TD9636_LAT TD9636_LON TD9636_STAGE TD9636_WIND TD9636_PRES TD9635_LAT TD9635_LON TD9635_WIND TD9635_PRES TD9635_ROCI NEUMANN_LAT NEUMANN_LON NEUMANN_CLASS NEUMANN_WIND NEUMANN_PRES MLC_LAT MLC_LON MLC_CLASS MLC_WIND MLC_PRES USA_GUST BOM_GUST BOM_GUST_PER REUNION_GUST REUNION_GUST_PER USA_SEAHGT USA_SEARAD_NE USA_SEARAD_SE USA_SEARAD_SW USA_SEARAD_NW STORM_SPEED STORM_DIR
1944163N11139 1944 30 WP MM NOT_NAMED 1944-06-11 00:00:00 NR 10.8000 139.100 main 1345 1345 __________O___ -1 10.8000 139.100 4 7 310
1944163N11139 1944 30 WP MM NOT_NAMED 1944-06-11 03:00:00 NR 11.0330 138.821 main 1357 1357 __________P___ -1 11.0330 138.821 4 7 311
1944163N11139 1944 30 WP MM NOT_NAMED 1944-06-11 06:00:00 NR 11.2728 138.543 main 1365 1348 __________P___ -1 11.2728 138.543 4 7 312
1944163N11139 1944 30 WP MM NOT_NAMED 1944-06-11 09:00:00 NR 11.5261 138.269 main 1348 1323 __________P___ -1 11.5261 138.269 4 8 315
1944163N11139 1944 30 WP MM NOT_NAMED 1944-06-11 12:00:00 NR 11.8000 138.000 main 1323 1306 __________O___ -1 11.8000 138.000 4 8 318
1944163N11139 1944 30 WP MM NOT_NAMED 1944-06-11 15:00:00 NR 12.0992 137.737 main 1298 1283 __________P___ -1 12.0992 137.737 4 8 320
1944163N11139 1944 30 WP MM NOT_NAMED 1944-06-11 18:00:00 NR 12.4198 137.472 main 1284 1255 __________P___ -1 12.4198 137.472 4 8 321
1944163N11139 1944 30 WP MM NOT_NAMED 1944-06-11 21:00:00 NR 12.7554 137.196 main 1257 1230 __________P___ -1 12.7554 137.196 4 9 321
1944163N11139 1944 30 WP MM NOT_NAMED 1944-06-12 00:00:00 NR 13.1000 136.900 main 1230 1204 __________O___ -1 13.1000 136.900 4 9 318
1944163N11139 1944 30 WP MM NOT_NAMED 1944-06-12 03:00:00 NR 13.4470 136.559 main 1204 1172 __________P___ -1 13.4470 136.559 4 10 316
1944163N11139 1944 30 WP MM NOT_NAMED 1944-06-12 06:00:00 NR 13.8002 136.200 main 1172 1146 __________P___ -1 13.8002 136.200 4 10 315
1944163N11139 1944 30 WP MM NOT_NAMED 1944-06-12 09:00:00 NR 14.1532 135.841 main 1137 1112 __________P___ -1 14.1532 135.841 4 10 316
1944163N11139 1944 30 WP MM NOT_NAMED 1944-06-12 12:00:00 NR 14.5000 135.500 main 1112 1096 __________O___ -1 14.5000 135.500 4 9 318
1944163N11139 1944 30 WP MM NOT_NAMED 1944-06-12 15:00:00 NR 14.8113 135.239 main 1088 1073 __________P___ -1 14.8113 135.239 4 8 322
1944163N11139 1944 30 WP MM NOT_NAMED 1944-06-12 18:00:00 NR 15.1191 134.993 main 1076 1056 __________P___ -1 15.1191 134.993 4 8 322
1944163N11139 1944 30 WP MM NOT_NAMED 1944-06-12 21:00:00 NR 15.4424 134.726 main 1056 1041 __________P___ -1 15.4424 134.726 4 9 320
1944163N11139 1944 30 WP MM NOT_NAMED 1944-06-13 00:00:00 NR 15.8000 134.400 main 1041 1015 __________O___ -1 15.8000 134.400 4 11 316
1944163N11139 1944 30 WP MM NOT_NAMED 1944-06-13 03:00:00 NR 16.1900 133.964 main 1020 992 __________P___ -1 16.1900 133.964 4 12 312
1944163N11139 1944 30 WP MM NOT_NAMED 1944-06-13 06:00:00 NR 16.6179 133.467 main 992 969 __________P___ -1 16.6179 133.467 4 13 312
1944163N11139 1944 30 WP MM NOT_NAMED 1944-06-13 09:00:00 NR 17.0868 132.936 main 966 951 __________P___ -1 17.0868 132.936 4 14 314
1944163N11139 1944 30 WP MM NOT_NAMED 1944-06-13 12:00:00 NR 17.6000 132.400 main 951 914 __________O___ -1 17.6000 132.400 4 15 311
1944163N11139 1944 30 WP MM NOT_NAMED 1944-06-13 15:00:00 NR 18.0928 131.726 main 910 887 __________P___ -1 18.0928 131.726 4 16 310
1944163N11139 1944 30 WP MM NOT_NAMED 1944-06-13 18:00:00 NR 18.6360 131.079 main 887 878 __________P___ -1 18.6360 131.079 4 16 317
1944163N11139 1944 30 WP MM NOT_NAMED 1944-06-13 21:00:00 NR 19.2608 130.591 main 879 862 __________P___ -1 19.2608 130.591 4 15 335
1944163N11139 1944 30 WP MM NOT_NAMED 1944-06-14 00:00:00 NR 20.0000 130.400 main 869 869 __________O___ -1 20.0000 130.400 4 17 2
1944163N11139 1944 30 WP MM NOT_NAMED 1944-06-14 03:00:00 NR 20.9256 130.653 main 922 922 __________P___ -1 20.9256 130.653 4 21 21
1944163N11139 1944 30 WP MM NOT_NAMED 1944-06-14 06:00:00 NR 21.9558 131.217 main 989 901 __________P___ -1 21.9558 131.217 4 24 30
1944163N11139 1944 30 WP MM NOT_NAMED 1944-06-14 09:00:00 NR 23.0078 131.973 main 902 816 __________P___ -1 23.0078 131.973 4 25 35
1944163N11139 1944 30 WP MM NOT_NAMED 1944-06-14 12:00:00 NR 24.0000 132.800 main 808 744 __________O___ -1 24.0000 132.800 4 24 38
1944163N11139 1944 30 WP MM NOT_NAMED 1944-06-14 15:00:00 NR 24.8722 133.595 main 738 698 __________P___ -1 24.8722 133.595 4 22 41
1944163N11139 1944 30 WP MM NOT_NAMED 1944-06-14 18:00:00 NR 25.6403 134.350 main 702 668 __________P___ -1 25.6403 134.350 4 20 42
1944163N11139 1944 30 WP MM NOT_NAMED 1944-06-14 21:00:00 NR 26.3384 135.080 main 673 646 __________P___ -1 26.3384 135.080 4 19 44
1944163N11139 1944 30 WP MM NOT_NAMED 1944-06-15 00:00:00 NR 27.0000 135.800 main 650 __________O___ -1 27.0000 135.800 4 18 44

Digital Typhoon Data and Search

About IBTrACS Database

This database is a web-friendly format of International Best Track Archive for Climate Stewardship (IBTrACS), a global best track data archive curated by NOAA dating back to 1842.

Updated: 2021-10-21